sensor_id;sensor_type;location;lat;lon;timestamp;P1;durP1;ratioP1;P2;durP2;ratioP2
15183;SDS011;7693;49.266;7.104;2023-12-20T02:51:19;7.27;;;6.67;;
15183;SDS011;7693;49.266;7.104;2023-12-20T02:53:44;8.43;;;7.73;;
15183;SDS011;7693;49.266;7.104;2023-12-20T02:56:10;7.97;;;7.37;;
15183;SDS011;7693;49.266;7.104;2023-12-20T02:58:36;8.70;;;7.93;;
15183;SDS011;7693;49.266;7.104;2023-12-20T03:01:01;8.20;;;7.47;;
15183;SDS011;7693;49.266;7.104;2023-12-20T03:03:27;8.30;;;7.70;;
15183;SDS011;7693;49.266;7.104;2023-12-20T03:05:53;7.43;;;7.03;;
15183;SDS011;7693;49.266;7.104;2023-12-20T03:08:18;7.33;;;6.87;;
15183;SDS011;7693;49.266;7.104;2023-12-20T03:10:44;6.57;;;6.17;;
15183;SDS011;7693;49.266;7.104;2023-12-20T03:13:09;7.13;;;6.73;;
15183;SDS011;7693;49.266;7.104;2023-12-20T03:15:35;7.13;;;6.63;;
15183;SDS011;7693;49.266;7.104;2023-12-20T03:18:01;6.97;;;6.57;;
15183;SDS011;7693;49.266;7.104;2023-12-20T03:20:27;6.53;;;6.13;;
15183;SDS011;7693;49.266;7.104;2023-12-20T03:22:52;6.93;;;6.53;;
15183;SDS011;7693;49.266;7.104;2023-12-20T03:25:18;6.27;;;5.93;;
15183;SDS011;7693;49.266;7.104;2023-12-20T03:27:43;6.30;;;5.90;;
15183;SDS011;7693;49.266;7.104;2023-12-20T03:30:09;7.40;;;6.90;;
15183;SDS011;7693;49.266;7.104;2023-12-20T03:32:36;5.97;;;5.67;;
15183;SDS011;7693;49.266;7.104;2023-12-20T03:35:02;5.97;;;5.67;;
15183;SDS011;7693;49.266;7.104;2023-12-20T03:37:28;5.67;;;5.43;;
15183;SDS011;7693;49.266;7.104;2023-12-20T03:39:54;6.43;;;6.03;;
15183;SDS011;7693;49.266;7.104;2023-12-20T03:42:19;6.23;;;5.93;;
15183;SDS011;7693;49.266;7.104;2023-12-20T03:44:45;5.93;;;5.63;;
15183;SDS011;7693;49.266;7.104;2023-12-20T03:47:11;6.00;;;5.70;;
15183;SDS011;7693;49.266;7.104;2023-12-20T03:49:36;6.30;;;6.00;;
15183;SDS011;7693;49.266;7.104;2023-12-20T03:52:03;5.93;;;5.63;;
15183;SDS011;7693;49.266;7.104;2023-12-20T03:54:29;6.63;;;6.03;;
15183;SDS011;7693;49.266;7.104;2023-12-20T03:56:55;6.37;;;6.00;;
15183;SDS011;7693;49.266;7.104;2023-12-20T03:59:21;5.80;;;5.50;;
15183;SDS011;7693;49.266;7.104;2023-12-20T04:01:46;6.10;;;5.80;;
15183;SDS011;7693;49.266;7.104;2023-12-20T04:04:12;6.40;;;6.00;;
15183;SDS011;7693;49.266;7.104;2023-12-20T04:06:38;5.90;;;5.60;;
15183;SDS011;7693;49.266;7.104;2023-12-20T04:09:04;5.67;;;5.37;;
15183;SDS011;7693;49.266;7.104;2023-12-20T04:11:30;6.00;;;5.70;;
15183;SDS011;7693;49.266;7.104;2023-12-20T04:13:56;5.70;;;5.40;;
15183;SDS011;7693;49.266;7.104;2023-12-20T04:16:21;5.50;;;4.90;;
15183;SDS011;7693;49.266;7.104;2023-12-20T04:18:47;4.50;;;4.30;;
15183;SDS011;7693;49.266;7.104;2023-12-20T04:21:12;5.00;;;4.80;;
15183;SDS011;7693;49.266;7.104;2023-12-20T04:23:38;4.70;;;4.43;;
15183;SDS011;7693;49.266;7.104;2023-12-20T04:26:04;5.00;;;4.80;;
15183;SDS011;7693;49.266;7.104;2023-12-20T04:28:29;4.63;;;4.43;;
15183;SDS011;7693;49.266;7.104;2023-12-20T04:30:55;4.37;;;4.17;;
15183;SDS011;7693;49.266;7.104;2023-12-20T04:33:21;4.70;;;4.30;;
15183;SDS011;7693;49.266;7.104;2023-12-20T04:35:47;5.97;;;4.20;;
15183;SDS011;7693;49.266;7.104;2023-12-20T04:38:13;4.43;;;4.07;;
15183;SDS011;7693;49.266;7.104;2023-12-20T04:40:39;4.83;;;4.40;;
15183;SDS011;7693;49.266;7.104;2023-12-20T04:43:06;4.10;;;3.90;;
15183;SDS011;7693;49.266;7.104;2023-12-20T04:45:32;4.33;;;4.13;;
15183;SDS011;7693;49.266;7.104;2023-12-20T04:47:57;4.97;;;4.57;;
15183;SDS011;7693;49.266;7.104;2023-12-20T04:50:23;4.90;;;4.50;;
15183;SDS011;7693;49.266;7.104;2023-12-20T04:52:49;4.63;;;4.33;;
15183;SDS011;7693;49.266;7.104;2023-12-20T04:55:15;4.17;;;3.87;;
15183;SDS011;7693;49.266;7.104;2023-12-20T04:57:40;4.50;;;4.20;;
15183;SDS011;7693;49.266;7.104;2023-12-20T05:00:06;4.23;;;3.93;;
15183;SDS011;7693;49.266;7.104;2023-12-20T05:02:33;4.40;;;4.00;;
15183;SDS011;7693;49.266;7.104;2023-12-20T05:05:02;3.90;;;3.53;;
15183;SDS011;7693;49.266;7.104;2023-12-20T05:07:27;3.60;;;2.90;;
15183;SDS011;7693;49.266;7.104;2023-12-20T05:09:53;3.87;;;3.27;;
15183;SDS011;7693;49.266;7.104;2023-12-20T05:12:19;4.40;;;3.50;;
15183;SDS011;7693;49.266;7.104;2023-12-20T05:14:44;3.13;;;2.80;;
15183;SDS011;7693;49.266;7.104;2023-12-20T05:17:11;4.17;;;3.03;;
15183;SDS011;7693;49.266;7.104;2023-12-20T05:19:36;3.07;;;2.77;;
15183;SDS011;7693;49.266;7.104;2023-12-20T05:22:02;3.63;;;2.53;;
15183;SDS011;7693;49.266;7.104;2023-12-20T05:24:28;4.27;;;3.07;;
15183;SDS011;7693;49.266;7.104;2023-12-20T05:26:53;4.37;;;2.77;;
15183;SDS011;7693;49.266;7.104;2023-12-20T05:29:19;5.67;;;2.90;;
15183;SDS011;7693;49.266;7.104;2023-12-20T05:31:45;5.47;;;2.80;;
15183;SDS011;7693;49.266;7.104;2023-12-20T05:34:11;3.43;;;2.57;;
15183;SDS011;7693;49.266;7.104;2023-12-20T05:36:36;7.07;;;2.70;;
15183;SDS011;7693;49.266;7.104;2023-12-20T05:39:02;5.83;;;2.67;;
15183;SDS011;7693;49.266;7.104;2023-12-20T05:41:32;5.87;;;2.70;;
15183;SDS011;7693;49.266;7.104;2023-12-20T05:43:58;7.27;;;3.23;;
15183;SDS011;7693;49.266;7.104;2023-12-20T05:46:24;6.50;;;3.40;;
15183;SDS011;7693;49.266;7.104;2023-12-20T05:48:50;3.97;;;3.00;;
15183;SDS011;7693;49.266;7.104;2023-12-20T05:51:16;3.63;;;3.03;;
15183;SDS011;7693;49.266;7.104;2023-12-20T05:53:42;5.40;;;2.90;;
15183;SDS011;7693;49.266;7.104;2023-12-20T05:56:09;9.20;;;3.57;;
15183;SDS011;7693;49.266;7.104;2023-12-20T05:58:35;8.47;;;3.10;;
15183;SDS011;7693;49.266;7.104;2023-12-20T06:01:00;10.10;;;3.57;;
15183;SDS011;7693;49.266;7.104;2023-12-20T06:03:28;5.30;;;3.20;;
15183;SDS011;7693;49.266;7.104;2023-12-20T06:05:54;5.07;;;3.47;;
15183;SDS011;7693;49.266;7.104;2023-12-20T06:08:19;5.77;;;3.30;;
15183;SDS011;7693;49.266;7.104;2023-12-20T06:10:45;5.10;;;3.03;;
15183;SDS011;7693;49.266;7.104;2023-12-20T06:13:11;5.23;;;3.03;;
15183;SDS011;7693;49.266;7.104;2023-12-20T06:15:38;4.97;;;3.30;;
15183;SDS011;7693;49.266;7.104;2023-12-20T06:18:03;9.20;;;3.30;;
15183;SDS011;7693;49.266;7.104;2023-12-20T06:20:29;4.60;;;2.97;;
15183;SDS011;7693;49.266;7.104;2023-12-20T06:22:55;5.00;;;2.70;;
15183;SDS011;7693;49.266;7.104;2023-12-20T06:25:20;5.47;;;3.00;;
15183;SDS011;7693;49.266;7.104;2023-12-20T06:27:46;5.23;;;2.73;;
15183;SDS011;7693;49.266;7.104;2023-12-20T06:30:12;6.60;;;3.13;;
15183;SDS011;7693;49.266;7.104;2023-12-20T06:32:37;6.60;;;2.70;;
15183;SDS011;7693;49.266;7.104;2023-12-20T06:35:04;5.97;;;3.40;;
15183;SDS011;7693;49.266;7.104;2023-12-20T06:37:30;3.87;;;2.70;;
15183;SDS011;7693;49.266;7.104;2023-12-20T06:39:56;2.97;;;2.33;;
15183;SDS011;7693;49.266;7.104;2023-12-20T06:42:24;4.73;;;2.60;;
15183;SDS011;7693;49.266;7.104;2023-12-20T06:44:50;3.00;;;2.43;;
15183;SDS011;7693;49.266;7.104;2023-12-20T06:47:15;5.07;;;3.37;;
15183;SDS011;7693;49.266;7.104;2023-12-20T06:49:41;4.30;;;2.70;;
15183;SDS011;7693;49.266;7.104;2023-12-20T06:52:06;4.07;;;2.87;;
15183;SDS011;7693;49.266;7.104;2023-12-20T06:54:32;2.97;;;2.40;;
15183;SDS011;7693;49.266;7.104;2023-12-20T06:56:59;7.50;;;3.60;;
15183;SDS011;7693;49.266;7.104;2023-12-20T06:59:25;3.03;;;2.77;;
15183;SDS011;7693;49.266;7.104;2023-12-20T07:01:51;6.53;;;2.83;;
15183;SDS011;7693;49.266;7.104;2023-12-20T07:04:17;13.27;;;4.80;;
15183;SDS011;7693;49.266;7.104;2023-12-20T07:06:45;5.53;;;2.60;;
15183;SDS011;7693;49.266;7.104;2023-12-20T07:09:11;4.87;;;2.40;;
15183;SDS011;7693;49.266;7.104;2023-12-20T07:11:38;6.00;;;3.00;;
15183;SDS011;7693;49.266;7.104;2023-12-20T07:14:04;5.03;;;2.87;;
15183;SDS011;7693;49.266;7.104;2023-12-20T07:16:29;5.80;;;3.50;;
15183;SDS011;7693;49.266;7.104;2023-12-20T07:18:55;6.23;;;3.37;;
15183;SDS011;7693;49.266;7.104;2023-12-20T07:21:22;7.40;;;3.60;;
15183;SDS011;7693;49.266;7.104;2023-12-20T07:23:47;7.67;;;3.90;;
15183;SDS011;7693;49.266;7.104;2023-12-20T07:26:13;7.67;;;4.10;;
15183;SDS011;7693;49.266;7.104;2023-12-20T07:28:40;9.53;;;4.10;;
15183;SDS011;7693;49.266;7.104;2023-12-20T07:31:05;5.97;;;4.03;;
15183;SDS011;7693;49.266;7.104;2023-12-20T07:33:31;6.13;;;3.60;;
15183;SDS011;7693;49.266;7.104;2023-12-20T07:35:57;9.10;;;4.53;;
15183;SDS011;7693;49.266;7.104;2023-12-20T07:38:24;8.13;;;3.93;;
15183;SDS011;7693;49.266;7.104;2023-12-20T07:40:50;17.77;;;5.23;;
15183;SDS011;7693;49.266;7.104;2023-12-20T07:43:15;9.63;;;4.80;;
15183;SDS011;7693;49.266;7.104;2023-12-20T07:45:41;7.10;;;4.23;;
15183;SDS011;7693;49.266;7.104;2023-12-20T07:48:07;5.37;;;4.23;;
15183;SDS011;7693;49.266;7.104;2023-12-20T07:50:33;5.43;;;4.10;;
15183;SDS011;7693;49.266;7.104;2023-12-20T07:52:59;9.70;;;4.87;;
15183;SDS011;7693;49.266;7.104;2023-12-20T07:55:25;11.77;;;4.30;;
15183;SDS011;7693;49.266;7.104;2023-12-20T07:57:51;10.30;;;5.03;;
15183;SDS011;7693;49.266;7.104;2023-12-20T08:00:17;8.97;;;5.57;;
15183;SDS011;7693;49.266;7.104;2023-12-20T08:02:44;9.97;;;4.97;;
15183;SDS011;7693;49.266;7.104;2023-12-20T08:05:10;7.93;;;4.97;;
15183;SDS011;7693;49.266;7.104;2023-12-20T08:07:35;8.43;;;4.70;;
15183;SDS011;7693;49.266;7.104;2023-12-20T08:10:01;6.80;;;4.37;;
15183;SDS011;7693;49.266;7.104;2023-12-20T08:12:27;7.23;;;4.33;;
15183;SDS011;7693;49.266;7.104;2023-12-20T08:14:53;9.20;;;4.50;;
15183;SDS011;7693;49.266;7.104;2023-12-20T08:17:19;8.63;;;4.33;;
15183;SDS011;7693;49.266;7.104;2023-12-20T08:19:45;6.17;;;4.47;;
15183;SDS011;7693;49.266;7.104;2023-12-20T08:22:10;9.93;;;4.40;;
15183;SDS011;7693;49.266;7.104;2023-12-20T08:24:36;8.23;;;4.60;;
15183;SDS011;7693;49.266;7.104;2023-12-20T08:27:03;9.60;;;5.73;;
15183;SDS011;7693;49.266;7.104;2023-12-20T08:29:29;9.57;;;5.33;;
15183;SDS011;7693;49.266;7.104;2023-12-20T08:31:55;9.30;;;5.43;;
15183;SDS011;7693;49.266;7.104;2023-12-20T08:34:21;11.57;;;5.27;;
15183;SDS011;7693;49.266;7.104;2023-12-20T08:36:47;6.20;;;4.87;;
15183;SDS011;7693;49.266;7.104;2023-12-20T08:39:12;10.43;;;4.87;;
15183;SDS011;7693;49.266;7.104;2023-12-20T08:41:38;6.67;;;4.57;;
15183;SDS011;7693;49.266;7.104;2023-12-20T08:44:03;7.40;;;4.83;;
15183;SDS011;7693;49.266;7.104;2023-12-20T08:46:29;7.43;;;4.80;;
15183;SDS011;7693;49.266;7.104;2023-12-20T08:48:55;9.87;;;4.47;;
15183;SDS011;7693;49.266;7.104;2023-12-20T08:51:20;6.23;;;4.50;;
15183;SDS011;7693;49.266;7.104;2023-12-20T08:53:47;8.07;;;4.60;;
15183;SDS011;7693;49.266;7.104;2023-12-20T08:56:14;9.87;;;4.40;;
15183;SDS011;7693;49.266;7.104;2023-12-20T08:58:40;5.77;;;3.97;;
15183;SDS011;7693;49.266;7.104;2023-12-20T09:01:05;14.33;;;5.50;;
15183;SDS011;7693;49.266;7.104;2023-12-20T09:03:32;6.87;;;4.53;;
15183;SDS011;7693;49.266;7.104;2023-12-20T09:05:58;5.70;;;3.77;;
15183;SDS011;7693;49.266;7.104;2023-12-20T09:08:23;8.10;;;4.57;;
15183;SDS011;7693;49.266;7.104;2023-12-20T09:10:49;12.90;;;4.13;;
15183;SDS011;7693;49.266;7.104;2023-12-20T09:13:15;9.37;;;5.00;;
15183;SDS011;7693;49.266;7.104;2023-12-20T09:15:40;11.57;;;4.00;;
15183;SDS011;7693;49.266;7.104;2023-12-20T09:18:06;9.87;;;4.20;;
15183;SDS011;7693;49.266;7.104;2023-12-20T09:20:32;8.23;;;4.40;;
15183;SDS011;7693;49.266;7.104;2023-12-20T09:22:58;7.73;;;4.63;;
15183;SDS011;7693;49.266;7.104;2023-12-20T09:25:24;8.27;;;4.95;;
15183;SDS011;7693;49.266;7.104;2023-12-20T09:27:51;5.73;;;4.13;;
15183;SDS011;7693;49.266;7.104;2023-12-20T09:30:17;11.17;;;4.70;;
15183;SDS011;7693;49.266;7.104;2023-12-20T09:32:43;7.40;;;4.43;;
15183;SDS011;7693;49.266;7.104;2023-12-20T09:35:08;8.77;;;4.50;;
15183;SDS011;7693;49.266;7.104;2023-12-20T09:37:34;7.90;;;4.13;;
15183;SDS011;7693;49.266;7.104;2023-12-20T09:40:00;11.73;;;4.30;;
15183;SDS011;7693;49.266;7.104;2023-12-20T09:42:38;8.60;;;4.27;;
15183;SDS011;7693;49.266;7.104;2023-12-20T09:45:25;10.77;;;4.50;;
15183;SDS011;7693;49.266;7.104;2023-12-20T09:47:53;8.70;;;4.57;;
15183;SDS011;7693;49.266;7.104;2023-12-20T09:50:20;9.77;;;5.27;;
15183;SDS011;7693;49.266;7.104;2023-12-20T09:52:50;7.87;;;4.70;;
15183;SDS011;7693;49.266;7.104;2023-12-20T09:55:18;8.40;;;4.37;;
15183;SDS011;7693;49.266;7.104;2023-12-20T09:57:45;8.77;;;4.20;;
15183;SDS011;7693;49.266;7.104;2023-12-20T10:00:12;6.80;;;4.10;;
15183;SDS011;7693;49.266;7.104;2023-12-20T10:02:39;9.63;;;4.47;;
15183;SDS011;7693;49.266;7.104;2023-12-20T10:05:15;9.23;;;4.27;;
15183;SDS011;7693;49.266;7.104;2023-12-20T10:07:45;9.50;;;4.73;;
15183;SDS011;7693;49.266;7.104;2023-12-20T10:10:12;14.77;;;5.20;;
15183;SDS011;7693;49.266;7.104;2023-12-20T10:12:38;9.60;;;4.20;;
15183;SDS011;7693;49.266;7.104;2023-12-20T10:15:05;10.90;;;4.90;;
15183;SDS011;7693;49.266;7.104;2023-12-20T10:17:31;7.53;;;4.80;;
15183;SDS011;7693;49.266;7.104;2023-12-20T10:19:57;8.33;;;4.83;;
15183;SDS011;7693;49.266;7.104;2023-12-20T10:22:23;5.13;;;3.87;;
15183;SDS011;7693;49.266;7.104;2023-12-20T10:24:49;9.60;;;4.17;;
15183;SDS011;7693;49.266;7.104;2023-12-20T10:27:15;8.40;;;4.33;;
15183;SDS011;7693;49.266;7.104;2023-12-20T10:29:44;12.03;;;4.60;;
15183;SDS011;7693;49.266;7.104;2023-12-20T10:34:49;5.63;;;3.97;;
15183;SDS011;7693;49.266;7.104;2023-12-20T10:37:16;11.37;;;4.13;;
15183;SDS011;7693;49.266;7.104;2023-12-20T10:39:47;7.47;;;3.93;;
15183;SDS011;7693;49.266;7.104;2023-12-20T10:42:15;9.80;;;4.07;;
15183;SDS011;7693;49.266;7.104;2023-12-20T10:44:41;9.83;;;4.27;;
15183;SDS011;7693;49.266;7.104;2023-12-20T10:47:08;12.90;;;4.80;;
15183;SDS011;7693;49.266;7.104;2023-12-20T10:49:36;7.87;;;4.30;;
15183;SDS011;7693;49.266;7.104;2023-12-20T10:52:04;9.87;;;4.33;;
15183;SDS011;7693;49.266;7.104;2023-12-20T10:54:31;11.53;;;3.90;;
15183;SDS011;7693;49.266;7.104;2023-12-20T10:56:57;13.37;;;3.80;;
15183;SDS011;7693;49.266;7.104;2023-12-20T12:48:15;12.97;;;3.70;;
15183;SDS011;7693;49.266;7.104;2023-12-20T12:50:41;6.17;;;4.10;;
15183;SDS011;7693;49.266;7.104;2023-12-20T12:53:06;8.83;;;4.23;;
15183;SDS011;7693;49.266;7.104;2023-12-20T12:55:33;11.33;;;4.47;;
15183;SDS011;7693;49.266;7.104;2023-12-20T12:58:00;8.83;;;3.60;;
15183;SDS011;7693;49.266;7.104;2023-12-20T13:00:26;6.00;;;3.37;;
15183;SDS011;7693;49.266;7.104;2023-12-20T13:02:51;12.67;;;4.27;;
15183;SDS011;7693;49.266;7.104;2023-12-20T13:05:17;7.80;;;3.33;;
15183;SDS011;7693;49.266;7.104;2023-12-20T13:07:43;8.37;;;3.50;;
15183;SDS011;7693;49.266;7.104;2023-12-20T13:10:10;8.23;;;3.30;;
15183;SDS011;7693;49.266;7.104;2023-12-20T13:12:36;10.43;;;4.27;;
15183;SDS011;7693;49.266;7.104;2023-12-20T13:15:02;6.23;;;3.67;;
15183;SDS011;7693;49.266;7.104;2023-12-20T13:17:31;13.63;;;4.17;;
15183;SDS011;7693;49.266;7.104;2023-12-20T13:19:56;4.83;;;2.97;;
15183;SDS011;7693;49.266;7.104;2023-12-20T13:22:22;9.13;;;3.50;;
15183;SDS011;7693;49.266;7.104;2023-12-20T13:24:48;7.13;;;3.20;;
15183;SDS011;7693;49.266;7.104;2023-12-20T13:27:14;5.50;;;3.57;;
15183;SDS011;7693;49.266;7.104;2023-12-20T13:29:39;10.83;;;3.47;;
15183;SDS011;7693;49.266;7.104;2023-12-20T13:32:05;9.20;;;3.93;;
15183;SDS011;7693;49.266;7.104;2023-12-20T13:34:31;10.90;;;3.50;;
15183;SDS011;7693;49.266;7.104;2023-12-20T13:36:57;6.10;;;2.90;;
15183;SDS011;7693;49.266;7.104;2023-12-20T13:39:23;7.33;;;2.97;;
15183;SDS011;7693;49.266;7.104;2023-12-20T13:41:48;6.17;;;3.10;;
15183;SDS011;7693;49.266;7.104;2023-12-20T13:44:14;8.77;;;3.53;;
15183;SDS011;7693;49.266;7.104;2023-12-20T13:46:40;6.73;;;3.37;;
15183;SDS011;7693;49.266;7.104;2023-12-20T13:49:06;7.40;;;3.47;;
15183;SDS011;7693;49.266;7.104;2023-12-20T13:51:32;9.87;;;4.03;;
15183;SDS011;7693;49.266;7.104;2023-12-20T13:53:57;6.60;;;3.20;;
15183;SDS011;7693;49.266;7.104;2023-12-20T13:56:24;11.50;;;3.70;;
15183;SDS011;7693;49.266;7.104;2023-12-20T13:58:50;9.33;;;4.00;;
15183;SDS011;7693;49.266;7.104;2023-12-20T14:01:16;10.90;;;4.00;;
15183;SDS011;7693;49.266;7.104;2023-12-20T14:03:42;9.57;;;3.60;;
15183;SDS011;7693;49.266;7.104;2023-12-20T14:06:08;8.03;;;3.63;;
15183;SDS011;7693;49.266;7.104;2023-12-20T14:08:33;14.67;;;4.03;;
15183;SDS011;7693;49.266;7.104;2023-12-20T14:11:00;9.07;;;3.80;;
15183;SDS011;7693;49.266;7.104;2023-12-20T14:13:26;8.60;;;3.80;;
15183;SDS011;7693;49.266;7.104;2023-12-20T14:15:52;8.53;;;3.67;;
15183;SDS011;7693;49.266;7.104;2023-12-20T14:18:19;7.70;;;3.60;;
15183;SDS011;7693;49.266;7.104;2023-12-20T14:20:45;8.80;;;3.50;;
15183;SDS011;7693;49.266;7.104;2023-12-20T14:23:12;8.73;;;3.83;;
15183;SDS011;7693;49.266;7.104;2023-12-20T14:25:40;8.23;;;3.90;;
15183;SDS011;7693;49.266;7.104;2023-12-20T14:28:06;9.43;;;3.93;;
15183;SDS011;7693;49.266;7.104;2023-12-20T14:30:32;10.90;;;3.73;;
15183;SDS011;7693;49.266;7.104;2023-12-20T14:33:00;9.27;;;3.83;;
15183;SDS011;7693;49.266;7.104;2023-12-20T14:35:25;9.27;;;3.20;;
15183;SDS011;7693;49.266;7.104;2023-12-20T14:37:51;5.13;;;3.50;;
15183;SDS011;7693;49.266;7.104;2023-12-20T14:40:17;7.87;;;3.93;;
15183;SDS011;7693;49.266;7.104;2023-12-20T14:42:43;16.47;;;3.90;;
15183;SDS011;7693;49.266;7.104;2023-12-20T14:45:09;12.07;;;3.83;;
15183;SDS011;7693;49.266;7.104;2023-12-20T14:47:35;9.40;;;3.60;;
15183;SDS011;7693;49.266;7.104;2023-12-20T14:50:04;11.10;;;4.03;;
15183;SDS011;7693;49.266;7.104;2023-12-20T14:52:31;8.37;;;3.73;;
15183;SDS011;7693;49.266;7.104;2023-12-20T14:54:59;10.00;;;3.70;;
15183;SDS011;7693;49.266;7.104;2023-12-20T14:57:25;11.73;;;3.83;;
15183;SDS011;7693;49.266;7.104;2023-12-20T14:59:51;10.27;;;3.63;;
15183;SDS011;7693;49.266;7.104;2023-12-20T15:02:17;10.57;;;3.80;;
15183;SDS011;7693;49.266;7.104;2023-12-20T15:04:43;17.57;;;4.20;;
15183;SDS011;7693;49.266;7.104;2023-12-20T15:07:08;10.23;;;4.07;;
15183;SDS011;7693;49.266;7.104;2023-12-20T15:09:34;7.93;;;4.03;;
15183;SDS011;7693;49.266;7.104;2023-12-20T15:12:00;12.20;;;3.60;;
15183;SDS011;7693;49.266;7.104;2023-12-20T15:14:26;9.73;;;4.13;;
15183;SDS011;7693;49.266;7.104;2023-12-20T15:16:53;10.37;;;4.40;;
15183;SDS011;7693;49.266;7.104;2023-12-20T15:19:20;9.77;;;4.20;;
15183;SDS011;7693;49.266;7.104;2023-12-20T15:21:46;7.00;;;3.90;;
15183;SDS011;7693;49.266;7.104;2023-12-20T15:24:12;11.87;;;4.27;;
15183;SDS011;7693;49.266;7.104;2023-12-20T15:26:42;13.63;;;4.20;;
15183;SDS011;7693;49.266;7.104;2023-12-20T15:29:08;12.50;;;4.10;;
15183;SDS011;7693;49.266;7.104;2023-12-20T15:31:35;12.83;;;4.60;;
15183;SDS011;7693;49.266;7.104;2023-12-20T15:34:08;10.37;;;4.13;;
15183;SDS011;7693;49.266;7.104;2023-12-20T15:36:34;8.23;;;4.13;;
15183;SDS011;7693;49.266;7.104;2023-12-20T15:39:00;11.80;;;4.57;;
15183;SDS011;7693;49.266;7.104;2023-12-20T15:41:27;9.43;;;4.20;;
15183;SDS011;7693;49.266;7.104;2023-12-20T15:43:52;9.47;;;4.30;;
15183;SDS011;7693;49.266;7.104;2023-12-20T15:46:18;11.87;;;5.43;;
15183;SDS011;7693;49.266;7.104;2023-12-20T15:48:43;9.00;;;3.90;;
15183;SDS011;7693;49.266;7.104;2023-12-20T15:51:09;9.77;;;4.30;;
15183;SDS011;7693;49.266;7.104;2023-12-20T15:53:35;10.77;;;4.60;;
15183;SDS011;7693;49.266;7.104;2023-12-20T15:56:01;8.47;;;4.30;;
15183;SDS011;7693;49.266;7.104;2023-12-20T15:58:28;13.23;;;4.00;;
15183;SDS011;7693;49.266;7.104;2023-12-20T16:00:55;9.57;;;3.93;;
15183;SDS011;7693;49.266;7.104;2023-12-20T16:03:21;8.07;;;3.73;;
15183;SDS011;7693;49.266;7.104;2023-12-20T16:05:46;9.63;;;3.67;;
15183;SDS011;7693;49.266;7.104;2023-12-20T16:08:12;11.13;;;4.93;;
15183;SDS011;7693;49.266;7.104;2023-12-20T16:10:38;9.40;;;3.60;;
15183;SDS011;7693;49.266;7.104;2023-12-20T16:13:03;12.93;;;3.87;;
15183;SDS011;7693;49.266;7.104;2023-12-20T16:15:29;6.97;;;3.67;;
15183;SDS011;7693;49.266;7.104;2023-12-20T16:17:55;11.10;;;3.93;;
15183;SDS011;7693;49.266;7.104;2023-12-20T16:20:20;11.03;;;4.07;;
15183;SDS011;7693;49.266;7.104;2023-12-20T16:22:46;7.13;;;3.53;;
15183;SDS011;7693;49.266;7.104;2023-12-20T16:25:12;10.37;;;3.97;;
15183;SDS011;7693;49.266;7.104;2023-12-20T16:27:37;13.57;;;4.40;;
15183;SDS011;7693;49.266;7.104;2023-12-20T16:30:04;10.27;;;3.93;;
15183;SDS011;7693;49.266;7.104;2023-12-20T16:32:30;12.43;;;4.13;;
15183;SDS011;7693;49.266;7.104;2023-12-20T16:34:56;7.13;;;4.07;;
15183;SDS011;7693;49.266;7.104;2023-12-20T16:37:22;11.00;;;4.20;;
15183;SDS011;7693;49.266;7.104;2023-12-20T16:39:48;9.17;;;4.03;;
15183;SDS011;7693;49.266;7.104;2023-12-20T16:42:13;8.40;;;3.87;;
15183;SDS011;7693;49.266;7.104;2023-12-20T16:44:39;10.97;;;4.30;;
15183;SDS011;7693;49.266;7.104;2023-12-20T16:47:05;9.97;;;4.53;;
15183;SDS011;7693;49.266;7.104;2023-12-20T16:49:30;9.67;;;4.53;;
15183;SDS011;7693;49.266;7.104;2023-12-20T16:51:56;10.13;;;4.17;;
15183;SDS011;7693;49.266;7.104;2023-12-20T16:54:22;10.93;;;4.57;;
15183;SDS011;7693;49.266;7.104;2023-12-20T16:56:48;9.03;;;4.37;;
15183;SDS011;7693;49.266;7.104;2023-12-20T16:59:13;9.77;;;4.50;;
15183;SDS011;7693;49.266;7.104;2023-12-20T17:01:39;9.20;;;4.07;;
15183;SDS011;7693;49.266;7.104;2023-12-20T17:04:09;12.40;;;4.37;;
15183;SDS011;7693;49.266;7.104;2023-12-20T17:06:34;9.13;;;4.50;;
15183;SDS011;7693;49.266;7.104;2023-12-20T17:09:00;10.27;;;5.30;;
15183;SDS011;7693;49.266;7.104;2023-12-20T17:11:26;14.23;;;4.90;;
15183;SDS011;7693;49.266;7.104;2023-12-20T17:13:51;10.67;;;4.03;;
15183;SDS011;7693;49.266;7.104;2023-12-20T17:16:17;12.67;;;5.63;;
15183;SDS011;7693;49.266;7.104;2023-12-20T17:18:43;10.03;;;5.20;;
15183;SDS011;7693;49.266;7.104;2023-12-20T17:21:16;16.37;;;7.70;;
15183;SDS011;7693;49.266;7.104;2023-12-20T17:23:43;8.40;;;5.20;;
15183;SDS011;7693;49.266;7.104;2023-12-20T17:26:10;13.37;;;5.43;;
15183;SDS011;7693;49.266;7.104;2023-12-20T17:28:36;15.33;;;5.93;;
15183;SDS011;7693;49.266;7.104;2023-12-20T17:31:02;17.33;;;7.70;;
15183;SDS011;7693;49.266;7.104;2023-12-20T17:33:28;10.77;;;4.90;;
15183;SDS011;7693;49.266;7.104;2023-12-20T17:35:53;10.00;;;5.80;;
15183;SDS011;7693;49.266;7.104;2023-12-20T17:38:19;11.50;;;5.93;;
15183;SDS011;7693;49.266;7.104;2023-12-20T17:40:45;14.53;;;4.97;;
15183;SDS011;7693;49.266;7.104;2023-12-20T17:43:10;10.97;;;4.37;;
15183;SDS011;7693;49.266;7.104;2023-12-20T17:45:37;10.03;;;5.17;;
15183;SDS011;7693;49.266;7.104;2023-12-20T17:48:05;9.70;;;5.17;;
15183;SDS011;7693;49.266;7.104;2023-12-20T17:50:31;8.17;;;4.37;;
15183;SDS011;7693;49.266;7.104;2023-12-20T17:52:57;11.13;;;5.47;;
15183;SDS011;7693;49.266;7.104;2023-12-20T17:55:24;9.43;;;4.77;;
15183;SDS011;7693;49.266;7.104;2023-12-20T17:57:50;15.37;;;5.50;;
15183;SDS011;7693;49.266;7.104;2023-12-20T18:00:20;10.57;;;5.03;;
15183;SDS011;7693;49.266;7.104;2023-12-20T18:02:49;10.97;;;5.33;;
15183;SDS011;7693;49.266;7.104;2023-12-20T18:05:16;7.63;;;4.47;;
15183;SDS011;7693;49.266;7.104;2023-12-20T18:07:42;6.80;;;4.30;;
15183;SDS011;7693;49.266;7.104;2023-12-20T18:10:09;7.37;;;4.30;;
15183;SDS011;7693;49.266;7.104;2023-12-20T18:12:35;7.67;;;4.63;;
15183;SDS011;7693;49.266;7.104;2023-12-20T18:15:00;8.40;;;4.70;;
15183;SDS011;7693;49.266;7.104;2023-12-20T18:17:27;7.93;;;5.03;;
15183;SDS011;7693;49.266;7.104;2023-12-20T18:19:53;7.80;;;4.50;;
15183;SDS011;7693;49.266;7.104;2023-12-20T18:22:19;6.87;;;5.10;;
15183;SDS011;7693;49.266;7.104;2023-12-20T18:24:44;12.27;;;4.60;;
15183;SDS011;7693;49.266;7.104;2023-12-20T18:27:10;7.67;;;4.87;;
15183;SDS011;7693;49.266;7.104;2023-12-20T18:29:36;6.73;;;4.63;;
15183;SDS011;7693;49.266;7.104;2023-12-20T18:32:01;13.90;;;5.80;;
15183;SDS011;7693;49.266;7.104;2023-12-20T18:34:27;5.70;;;4.40;;
15183;SDS011;7693;49.266;7.104;2023-12-20T18:36:54;10.83;;;4.67;;
15183;SDS011;7693;49.266;7.104;2023-12-20T18:39:20;4.63;;;4.00;;
15183;SDS011;7693;49.266;7.104;2023-12-20T18:41:45;6.67;;;4.53;;
15183;SDS011;7693;49.266;7.104;2023-12-20T18:44:16;5.93;;;4.10;;
15183;SDS011;7693;49.266;7.104;2023-12-20T18:46:43;5.13;;;4.50;;
15183;SDS011;7693;49.266;7.104;2023-12-20T18:49:09;9.37;;;5.53;;
15183;SDS011;7693;49.266;7.104;2023-12-20T18:51:35;8.87;;;5.07;;
15183;SDS011;7693;49.266;7.104;2023-12-20T18:54:00;11.50;;;5.47;;
15183;SDS011;7693;49.266;7.104;2023-12-20T18:56:27;8.53;;;4.60;;
15183;SDS011;7693;49.266;7.104;2023-12-20T18:58:52;8.77;;;5.13;;
15183;SDS011;7693;49.266;7.104;2023-12-20T19:01:18;14.90;;;5.83;;
15183;SDS011;7693;49.266;7.104;2023-12-20T19:03:44;10.67;;;5.13;;
15183;SDS011;7693;49.266;7.104;2023-12-20T19:06:09;13.70;;;9.87;;
15183;SDS011;7693;49.266;7.104;2023-12-20T19:08:35;6.37;;;4.93;;
15183;SDS011;7693;49.266;7.104;2023-12-20T19:11:01;10.70;;;6.00;;
15183;SDS011;7693;49.266;7.104;2023-12-20T19:13:27;13.00;;;5.70;;
15183;SDS011;7693;49.266;7.104;2023-12-20T19:15:57;7.73;;;5.27;;
15183;SDS011;7693;49.266;7.104;2023-12-20T19:18:23;12.93;;;5.43;;
15183;SDS011;7693;49.266;7.104;2023-12-20T19:20:49;8.00;;;4.77;;
15183;SDS011;7693;49.266;7.104;2023-12-20T19:23:15;9.87;;;5.10;;
15183;SDS011;7693;49.266;7.104;2023-12-20T19:25:41;7.33;;;5.10;;
15183;SDS011;7693;49.266;7.104;2023-12-20T19:28:07;9.60;;;5.13;;
15183;SDS011;7693;49.266;7.104;2023-12-20T19:30:33;8.23;;;5.20;;
15183;SDS011;7693;49.266;7.104;2023-12-20T19:32:58;4.67;;;4.37;;